JHQ weather

Shute Harbour Airport
Queensland, Australia

Public forecast

Using degrees Celsius for public forecast. Weather courtesy of forecast.io.

Closest aviation weather report (METAR) to Shute Harbour Airport

Closest report is Hamilton Island Airport, 12.1 nm (22.4 km) ESE. Retrieved 2020/04/08 04:30 UTC (5 minutes ago):

YBHM 080430Z AUTO 13018KT 9999 // SCT041 28/19 Q1013 RF000/0000

Closest aviation forecast (TAF) to Shute Harbour Airport

Closest forecast is Hamilton Island Airport, 12.1 nm (22.4 km) ESE. Retrieved 2020-04-08 00:00 UTC (5 hours ago):

TAF YBHM 072317Z 0800/0812 12020KT 9999 SCT030